Time;durP1;ratioP1;P1;durP2;ratioP2;P2;SDS_P1;SDS_P2;PMS_P1;PMS_P2;Temp;Humidity;BMP_temperature;BMP_pressure;BME280_temperature;BME280_humidity;BME280_pressure;Samples;Min_cycle;Max_cycle;Signal;HPM_P1;HPM_P2
2022/09/16 00:00:19;;;;;;;2.25;0.80;;;;;;;9.86;63.97;100426.56;4993923;28;20121;-73
2022/09/16 00:02:45;;;;;;;3.20;1.13;;;;;;;9.82;64.60;100425.44;5008963;28;20030;-74
2022/09/16 00:05:11;;;;;;;2.88;1.00;;;;;;;9.81;65.36;100426.50;4998402;28;20342;-73
2022/09/16 00:07:36;;;;;;;2.63;0.80;;;;;;;9.76;65.72;100427.31;5008240;28;20133;-73
2022/09/16 00:10:03;;;;;;;2.88;0.98;;;;;;;9.74;65.87;100426.75;5010796;28;20038;-73
2022/09/16 00:12:29;;;;;;;2.67;0.98;;;;;;;9.70;66.07;100426.44;5011809;28;20026;-72
2022/09/16 00:14:55;;;;;;;1.45;0.63;;;;;;;9.69;66.55;100426.69;4987073;28;20028;-75
2022/09/16 00:17:21;;;;;;;3.30;0.80;;;;;;;9.66;66.34;100424.47;5008930;28;20031;-74
2022/09/16 00:19:48;;;;;;;1.40;0.90;;;;;;;9.61;66.88;100428.81;5014595;28;20045;-74
2022/09/16 00:22:14;;;;;;;2.08;0.82;;;;;;;9.63;67.52;100430.47;5001185;28;20496;-74
2022/09/16 00:24:39;;;;;;;1.58;0.80;;;;;;;9.61;67.65;100428.81;5011781;28;20120;-75
2022/09/16 00:27:04;;;;;;;2.05;0.90;;;;;;;9.57;68.03;100433.13;4976365;28;20029;-74
2022/09/16 00:29:30;;;;;;;3.40;0.90;;;;;;;9.55;68.14;100429.00;5004492;28;20041;-73
2022/09/16 00:31:55;;;;;;;1.50;0.80;;;;;;;9.54;68.32;100441.03;5004403;28;20026;-74
2022/09/16 00:34:21;;;;;;;2.08;0.73;;;;;;;9.52;68.50;100443.19;5001692;28;20030;-74
2022/09/16 00:36:46;;;;;;;3.97;0.80;;;;;;;9.50;68.79;100440.72;5011432;28;20034;-73
2022/09/16 00:39:12;;;;;;;1.60;0.60;;;;;;;9.46;69.09;100444.22;5011625;28;20104;-74
2022/09/16 00:41:38;;;;;;;2.17;0.75;;;;;;;9.39;69.41;100441.72;5006154;28;20078;-73
2022/09/16 00:44:07;;;;;;;1.63;0.70;;;;;;;9.36;69.60;100444.94;5003954;28;20516;-75
2022/09/16 00:46:42;;;;;;;2.38;1.02;;;;;;;9.33;69.80;100445.44;5009989;28;20033;-74
2022/09/16 00:49:17;;;;;;;2.42;0.80;;;;;;;9.29;70.17;100444.31;5012848;28;20030;-74
2022/09/16 00:51:46;;;;;;;1.35;0.68;;;;;;;9.26;70.18;100445.69;5005352;28;20030;-74
2022/09/16 00:54:13;;;;;;;1.80;0.80;;;;;;;9.25;71.00;100441.28;5002432;28;20026;-75
2022/09/16 00:56:43;;;;;;;6.15;0.93;;;;;;;9.26;70.55;100446.47;5005032;28;20017;-75
2022/09/16 00:59:20;;;;;;;3.47;0.80;;;;;;;9.20;70.79;100442.06;5002078;28;20030;-74
2022/09/16 01:01:48;;;;;;;1.67;0.73;;;;;;;9.15;71.31;100446.63;5004911;28;20086;-75
2022/09/16 01:04:21;;;;;;;2.33;0.80;;;;;;;9.11;71.49;100442.75;5011561;28;20419;-73
2022/09/16 01:06:48;;;;;;;0.75;0.60;;;;;;;9.07;71.69;100442.47;5011683;28;20029;-74
2022/09/16 01:09:15;;;;;;;2.22;0.75;;;;;;;9.08;72.15;100444.94;5013108;28;20026;-73
2022/09/16 01:11:40;;;;;;;2.30;0.75;;;;;;;9.09;72.50;100448.47;4999448;28;20044;-74
2022/09/16 01:17:10;;;;;;;1.40;0.50;;;;;;;9.02;72.50;100436.94;5012891;28;20096;-75
2022/09/16 01:19:51;;;;;;;1.70;0.80;;;;;;;9.03;72.97;100438.59;5014602;28;20698;-74
2022/09/16 01:22:40;;;;;;;2.88;0.80;;;;;;;9.00;73.17;100442.66;5019723;28;20063;-74
2022/09/16 01:25:49;;;;;;;2.17;0.77;;;;;;;8.97;73.11;100443.16;4980218;28;20040;-74
2022/09/16 01:28:28;;;;;;;2.10;0.90;;;;;;;8.97;72.74;100442.34;4975190;28;20427;-74
2022/09/16 01:31:22;;;;;;;1.88;0.77;;;;;;;8.95;73.11;100449.94;5018548;28;20018;-74
2022/09/16 01:33:50;;;;;;;0.93;0.50;;;;;;;8.94;73.56;100453.78;5023696;28;20030;-74
2022/09/16 01:36:28;;;;;;;1.33;0.55;;;;;;;8.93;73.75;100452.13;5022918;28;20080;-74
2022/09/16 01:39:12;;;;;;;4.32;0.73;;;;;;;8.88;73.72;100450.97;5016956;28;20095;-74
2022/09/16 01:41:50;;;;;;;2.22;0.70;;;;;;;8.89;74.21;100446.31;4996252;28;20101;-75
2022/09/16 01:44:38;;;;;;;2.38;1.33;;;;;;;8.86;74.00;100447.69;4991068;28;20033;-74
2022/09/16 01:47:33;;;;;;;1.65;0.65;;;;;;;8.88;74.16;100450.97;5000805;28;20457;-70
2022/09/16 01:50:04;;;;;;;3.60;0.70;;;;;;;8.91;74.27;100444.19;5015784;28;20061;-71
2022/09/16 01:52:58;;;;;;;2.08;0.70;;;;;;;8.90;74.25;100447.97;5012865;28;20049;-72
2022/09/16 01:55:46;;;;;;;1.48;0.52;;;;;;;8.90;74.25;100443.34;5013560;28;20049;-70
2022/09/16 01:58:22;;;;;;;2.25;0.75;;;;;;;8.95;74.13;100449.94;5006265;28;20030;-71
2022/09/16 02:00:50;;;;;;;3.45;0.70;;;;;;;8.95;74.14;100449.94;5018087;28;20038;-71
2022/09/16 02:03:22;;;;;;;1.48;0.60;;;;;;;8.95;74.34;100449.94;5004772;28;20109;-71
2022/09/16 02:05:55;;;;;;;3.60;0.73;;;;;;;8.97;74.12;100459.53;5008627;28;20033;-70
2022/09/16 02:08:33;;;;;;;1.48;0.68;;;;;;;8.98;73.72;100452.16;5007469;28;20024;-69
2022/09/16 02:11:01;;;;;;;1.20;0.47;;;;;;;9.00;73.34;100455.47;5008077;28;20044;-69
2022/09/16 02:13:34;;;;;;;1.92;1.00;;;;;;;8.98;73.44;100449.44;5012239;28;20077;-71
2022/09/16 02:16:27;;;;;;;3.88;0.65;;;;;;;8.96;73.48;100454.34;4999425;28;20029;-71
2022/09/16 02:19:01;;;;;;;1.45;0.50;;;;;;;8.93;73.29;100449.38;5005046;28;20072;-72
2022/09/16 02:21:30;;;;;;;1.65;0.55;;;;;;;8.91;73.55;100455.09;5005856;28;20045;-71
2022/09/16 02:24:00;;;;;;;2.92;0.77;;;;;;;8.88;73.39;100461.88;5006984;28;20058;-70
2022/09/16 02:26:39;;;;;;;1.15;0.50;;;;;;;8.90;73.56;100464.34;5013470;28;20029;-71
2022/09/16 02:29:16;;;;;;;3.00;0.57;;;;;;;8.87;73.54;100453.94;5011181;28;20496;-70
2022/09/16 02:31:43;;;;;;;1.35;0.60;;;;;;;8.86;73.76;100458.59;4995494;28;20120;-70
2022/09/16 02:34:17;;;;;;;1.75;0.95;;;;;;;8.84;73.79;100458.00;5020963;28;20054;-71
2022/09/16 02:36:46;;;;;;;1.13;0.50;;;;;;;8.83;73.70;100461.78;5013181;28;20088;-71
2022/09/16 02:39:17;;;;;;;1.70;0.55;;;;;;;8.79;73.29;100463.41;5016522;28;20018;-72
2022/09/16 02:41:43;;;;;;;1.48;0.65;;;;;;;8.77;73.50;100459.28;5021590;28;20130;-72
2022/09/16 02:44:10;;;;;;;1.25;0.40;;;;;;;8.77;74.21;100462.81;5000446;28;20045;-71
2022/09/16 02:47:01;;;;;;;2.33;0.57;;;;;;;8.76;73.66;100458.47;5009506;28;20056;-71
2022/09/16 02:49:49;;;;;;;1.10;0.50;;;;;;;8.70;73.91;100459.44;4986849;28;20102;-70
2022/09/16 02:52:47;;;;;;;1.35;0.50;;;;;;;8.71;73.53;100467.38;5015270;28;20022;-70
2022/09/16 02:55:30;;;;;;;1.95;0.60;;;;;;;8.71;74.03;100466.56;5022681;28;20411;-72
2022/09/16 02:57:56;;;;;;;2.58;0.65;;;;;;;8.69;74.23;100458.63;5022385;28;20045;-70
2022/09/16 03:00:22;;;;;;;1.02;0.47;;;;;;;8.62;74.30;100446.28;5004584;28;20034;-70
2022/09/16 03:02:48;;;;;;;1.65;0.50;;;;;;;8.60;74.51;100454.72;5009405;28;20084;-70
2022/09/16 03:05:13;;;;;;;2.53;0.65;;;;;;;8.63;74.33;100456.09;5007215;28;20496;-71
2022/09/16 03:07:41;;;;;;;3.15;0.95;;;;;;;8.61;74.34;100466.44;4991918;28;20033;-70
2022/09/16 03:10:10;;;;;;;5.22;0.85;;;;;;;8.58;74.83;100458.75;4997102;28;20026;-70
2022/09/16 03:12:49;;;;;;;5.40;0.93;;;;;;;8.54;75.01;100462.00;4996341;28;20045;-71
2022/09/16 03:15:29;;;;;;;1.90;0.57;;;;;;;8.51;74.21;100467.94;5011071;28;20067;-70
2022/09/16 03:18:07;;;;;;;1.35;0.68;;;;;;;8.47;74.78;100461.34;5018132;28;20029;-71
2022/09/16 03:21:06;;;;;;;2.65;0.60;;;;;;;8.41;74.89;100453.31;5007975;28;20881;-69
2022/09/16 03:23:43;;;;;;;2.00;0.77;;;;;;;8.41;74.79;100459.59;5008951;28;20050;-71
2022/09/16 03:26:22;;;;;;;2.88;0.57;;;;;;;8.40;74.72;100455.22;5004078;28;20031;-70
2022/09/16 03:29:19;;;;;;;4.53;0.98;;;;;;;8.39;75.04;100453.56;5009450;28;20084;-71
2022/09/16 03:32:01;;;;;;;3.40;0.68;;;;;;;8.37;75.59;100455.72;5012551;28;20409;-70
2022/09/16 03:34:27;;;;;;;1.90;0.63;;;;;;;8.37;75.91;100461.16;5006448;28;20053;-70
2022/09/16 03:36:58;;;;;;;3.58;0.70;;;;;;;8.35;76.04;100464.16;5012557;28;20046;-72
2022/09/16 03:39:23;;;;;;;2.10;0.60;;;;;;;8.36;75.83;100454.06;5001264;28;20028;-70
2022/09/16 03:41:50;;;;;;;5.53;0.80;;;;;;;8.34;76.19;100457.03;5004277;28;20030;-70
2022/09/16 03:44:15;;;;;;;1.30;0.60;;;;;;;8.36;75.93;100464.97;5016804;28;20108;-71
2022/09/16 03:46:41;;;;;;;2.22;0.88;;;;;;;8.33;75.58;100458.09;5010148;28;20128;-71
2022/09/16 03:49:06;;;;;;;1.98;0.65;;;;;;;8.33;76.00;100455.38;5006047;28;20045;-70
2022/09/16 03:51:32;;;;;;;2.15;0.60;;;;;;;8.29;76.15;100458.84;5011988;28;21394;-71
2022/09/16 03:53:57;;;;;;;3.53;1.15;;;;;;;8.32;76.49;100467.38;5003893;28;20052;-71
2022/09/16 03:56:23;;;;;;;3.45;1.00;;;;;;;8.33;76.74;100463.56;5004464;28;20038;-71
2022/09/16 03:58:49;;;;;;;3.63;0.73;;;;;;;8.38;76.30;100466.38;4994954;28;20030;-71
2022/09/16 04:01:14;;;;;;;1.92;0.60;;;;;;;8.35;76.09;100464.16;4993975;28;20041;-69
2022/09/16 04:03:40;;;;;;;1.92;0.60;;;;;;;8.32;76.70;100463.81;5007877;28;20076;-71
2022/09/16 04:06:06;;;;;;;2.47;0.85;;;;;;;8.32;76.52;100470.09;4999980;28;20041;-71
2022/09/16 04:08:32;;;;;;;2.38;0.80;;;;;;;8.35;77.09;100474.19;4984041;28;20022;-71
2022/09/16 04:11:06;;;;;;;2.40;0.73;;;;;;;8.33;77.34;100473.63;4989765;28;20040;-70
2022/09/16 04:13:33;;;;;;;3.25;0.80;;;;;;;8.33;76.62;100471.72;5010928;28;20033;-71
2022/09/16 04:16:00;;;;;;;2.40;0.57;;;;;;;8.34;76.97;100472.56;4997365;28;20025;-71
2022/09/16 04:18:26;;;;;;;5.45;0.85;;;;;;;8.28;76.98;100473.53;5000692;28;20042;-70
2022/09/16 04:20:57;;;;;;;2.45;0.90;;;;;;;8.25;77.10;100479.50;5009625;28;20026;-71
2022/09/16 04:23:27;;;;;;;10.93;0.77;;;;;;;8.22;77.54;100475.41;5002983;28;20730;-70
2022/09/16 04:26:01;;;;;;;4.95;0.90;;;;;;;8.23;76.86;100465.31;4996910;28;20038;-70
2022/09/16 04:28:27;;;;;;;4.43;1.10;;;;;;;8.27;77.11;100470.00;4991339;28;20022;-72
2022/09/16 04:30:53;;;;;;;4.10;0.70;;;;;;;8.31;76.63;100473.03;5012729;28;20424;-70
2022/09/16 04:33:19;;;;;;;2.53;0.90;;;;;;;8.33;77.26;100479.09;4969911;28;20030;-70
2022/09/16 04:35:44;;;;;;;1.75;0.73;;;;;;;8.40;76.74;100471.56;5007009;28;20046;-71
2022/09/16 04:38:09;;;;;;;3.83;0.60;;;;;;;8.43;76.34;100473.78;4987121;28;20077;-70
2022/09/16 04:40:36;;;;;;;1.48;0.85;;;;;;;8.49;76.50;100486.44;5003516;28;20032;-71
2022/09/16 04:43:02;;;;;;;0.90;0.70;;;;;;;8.51;76.26;100481.56;5000895;28;20037;-70
2022/09/16 04:45:27;;;;;;;1.90;0.70;;;;;;;8.47;76.34;100477.69;5004837;28;20026;-71
2022/09/16 04:47:57;;;;;;;5.40;0.82;;;;;;;8.43;76.77;100476.50;4990748;28;20018;-71
2022/09/16 04:50:23;;;;;;;1.90;0.80;;;;;;;8.39;76.62;100480.81;4956760;28;20484;-72
2022/09/16 04:52:50;;;;;;;3.92;0.80;;;;;;;8.32;77.17;100480.16;4995971;28;20026;-70
2022/09/16 04:55:16;;;;;;;4.38;1.10;;;;;;;8.33;77.46;100476.38;4993183;28;20120;-72
2022/09/16 04:57:42;;;;;;;1.58;0.55;;;;;;;8.34;76.91;100478.84;5004277;28;20041;-70
2022/09/16 05:00:10;;;;;;;2.55;0.85;;;;;;;8.34;77.21;100478.03;4996075;28;20142;-70
2022/09/16 05:02:35;;;;;;;2.85;0.77;;;;;;;8.28;77.39;100479.00;4975753;28;20030;-71
2022/09/16 05:05:03;;;;;;;4.40;1.10;;;;;;;8.26;77.67;100481.97;4994319;28;20107;-72
2022/09/16 05:07:28;;;;;;;5.07;0.75;;;;;;;8.22;77.41;100486.28;5013313;28;20080;-70
2022/09/16 05:09:54;;;;;;;2.05;0.70;;;;;;;8.18;77.49;100485.94;4979367;28;20030;-71
2022/09/16 05:12:21;;;;;;;1.00;0.80;;;;;;;8.16;77.68;100473.63;4999635;28;20046;-71
2022/09/16 05:14:46;;;;;;;7.53;1.23;;;;;;;8.13;77.57;100472.25;4988922;28;20529;-71
2022/09/16 05:17:12;;;;;;;2.10;0.90;;;;;;;8.11;78.01;100477.13;5000913;28;20101;-70
2022/09/16 05:19:37;;;;;;;3.03;0.95;;;;;;;8.07;78.35;100473.22;4968649;28;20057;-73
2022/09/16 05:22:06;;;;;;;2.97;1.02;;;;;;;8.06;78.21;100481.66;4993413;28;20037;-74
2022/09/16 05:24:37;;;;;;;2.10;0.80;;;;;;;8.01;78.57;100477.78;4970178;28;20050;-73
2022/09/16 05:27:03;;;;;;;1.92;0.70;;;;;;;7.99;78.16;100482.66;4999707;28;20050;-72
2022/09/16 05:29:28;;;;;;;1.30;0.73;;;;;;;7.98;77.89;100485.63;5006073;28;20571;-73
2022/09/16 05:31:54;;;;;;;1.73;0.75;;;;;;;7.95;77.95;100491.56;5009220;28;20042;-71
2022/09/16 05:34:22;;;;;;;2.13;1.00;;;;;;;7.95;78.72;100491.56;4989496;28;20118;-72
2022/09/16 05:36:49;;;;;;;1.33;0.50;;;;;;;7.94;78.60;100484.47;4980152;28;20039;-73
2022/09/16 05:39:17;;;;;;;1.42;0.55;;;;;;;7.91;78.69;100484.97;4997206;28;20471;-73
2022/09/16 05:41:43;;;;;;;1.77;0.60;;;;;;;7.84;78.48;100480.50;5008434;28;20021;-72
2022/09/16 05:44:08;;;;;;;1.20;0.55;;;;;;;7.84;78.15;100485.94;4994741;28;20029;-74
2022/09/16 05:46:48;;;;;;;2.20;0.70;;;;;;;7.85;78.83;100486.78;5007183;28;20504;-73
2022/09/16 05:49:19;;;;;;;2.58;0.60;;;;;;;7.88;78.47;100490.91;5012871;28;20033;-72
2022/09/16 05:51:46;;;;;;;1.90;0.80;;;;;;;7.93;78.73;100499.13;5003795;28;20540;-71
2022/09/16 05:54:12;;;;;;;6.22;1.00;;;;;;;7.93;78.76;100488.25;5010923;28;20026;-70
2022/09/16 05:56:37;;;;;;;5.05;0.90;;;;;;;7.94;78.71;100500.81;5000080;28;20033;-72
2022/09/16 05:59:03;;;;;;;1.40;0.60;;;;;;;7.98;78.54;100504.69;5005740;28;20463;-71
2022/09/16 06:01:31;;;;;;;3.15;0.88;;;;;;;7.95;78.62;100491.56;4996868;28;20034;-71
2022/09/16 06:03:59;;;;;;;2.67;0.80;;;;;;;7.98;78.73;100501.97;5008644;28;20392;-71
2022/09/16 06:06:38;;;;;;;4.03;0.60;;;;;;;8.07;78.39;100505.09;5002485;28;20026;-70
2022/09/16 06:09:12;;;;;;;2.03;0.80;;;;;;;8.11;77.89;100498.91;5010621;28;20026;-71
2022/09/16 06:11:44;;;;;;;1.33;0.60;;;;;;;8.17;78.21;100500.63;5027023;28;20665;-70
2022/09/16 06:14:10;;;;;;;2.50;0.70;;;;;;;8.26;77.34;100508.41;5005545;28;20031;-74
2022/09/16 06:16:36;;;;;;;3.00;0.70;;;;;;;8.27;78.06;100502.69;5004569;28;20065;-73
2022/09/16 06:19:05;;;;;;;4.13;0.70;;;;;;;8.34;77.87;100500.63;5007821;28;20022;-70
2022/09/16 06:21:32;;;;;;;2.80;0.80;;;;;;;8.42;77.50;100506.75;5005516;28;20038;-70
2022/09/16 06:23:57;;;;;;;6.43;0.90;;;;;;;8.48;76.92;100516.66;5010817;28;20149;-69
2022/09/16 06:26:25;;;;;;;5.18;0.82;;;;;;;8.41;76.77;100499.63;5011965;28;20106;-71
2022/09/16 06:28:51;;;;;;;2.72;0.70;;;;;;;8.44;77.18;100510.91;5015091;28;20061;-70
2022/09/16 06:31:27;;;;;;;6.55;0.60;;;;;;;8.37;77.79;100510.22;5015447;28;20014;-71
2022/09/16 06:33:54;;;;;;;3.33;0.68;;;;;;;8.39;77.49;100514.31;5013536;28;20070;-70
2022/09/16 06:36:22;;;;;;;1.38;0.57;;;;;;;8.39;77.64;100518.97;5007202;28;20027;-72
2022/09/16 06:38:50;;;;;;;1.70;0.50;;;;;;;8.43;78.22;100514.66;5011538;28;20522;-70
2022/09/16 06:41:17;;;;;;;3.22;0.95;;;;;;;8.50;77.75;100520.78;5001635;28;20121;-70
2022/09/16 06:43:44;;;;;;;2.25;0.73;;;;;;;8.57;77.74;100517.88;5001141;28;20061;-71
2022/09/16 06:46:12;;;;;;;2.30;0.70;;;;;;;8.65;77.50;100522.09;4972468;28;20026;-72
2022/09/16 06:48:39;;;;;;;1.77;0.60;;;;;;;8.72;77.02;100522.75;5004066;28;20026;-71
2022/09/16 06:51:10;;;;;;;2.13;0.68;;;;;;;8.79;76.71;100526.13;4999772;28;20026;-72
2022/09/16 06:53:35;;;;;;;1.63;0.50;;;;;;;8.89;76.47;100529.00;5017663;28;20026;-73
2022/09/16 06:56:04;;;;;;;1.35;0.52;;;;;;;8.95;76.42;100531.75;5007784;28;20084;-72
2022/09/16 06:58:34;;;;;;;1.90;0.80;;;;;;;9.08;76.50;100531.38;5008855;28;20030;-72
2022/09/16 07:01:12;;;;;;;1.42;0.52;;;;;;;9.17;75.83;100529.88;5015103;28;20053;-71
2022/09/16 07:03:40;;;;;;;2.55;0.70;;;;;;;9.27;75.79;100529.16;5014247;28;20324;-71
2022/09/16 07:06:06;;;;;;;1.35;0.60;;;;;;;9.33;75.19;100527.31;5009985;28;20032;-71
2022/09/16 07:08:34;;;;;;;4.07;0.60;;;;;;;9.39;75.20;100537.25;5000866;28;20053;-71
2022/09/16 07:11:10;;;;;;;7.82;1.00;;;;;;;9.50;74.96;100532.72;5010006;28;20030;-72
2022/09/16 07:13:35;;;;;;;3.75;0.60;;;;;;;9.55;74.72;100530.88;5002492;28;20029;-72
2022/09/16 07:16:22;;;;;;;13.52;1.02;;;;;;;9.64;74.60;100530.38;4991986;28;20496;-72
2022/09/16 07:18:52;;;;;;;4.97;0.75;;;;;;;9.76;74.25;100542.81;5028717;28;20220;-73
2022/09/16 07:21:19;;;;;;;4.53;0.50;;;;;;;9.85;74.19;100551.38;5013814;28;20044;-73
2022/09/16 07:23:45;;;;;;;5.90;0.85;;;;;;;9.95;73.65;100547.91;5006272;28;20117;-70
2022/09/16 07:26:13;;;;;;;1.35;0.70;;;;;;;10.05;73.66;100552.66;5005191;28;20523;-72
2022/09/16 07:28:41;;;;;;;3.53;0.70;;;;;;;10.14;73.38;100560.09;5005124;28;20026;-70
2022/09/16 07:31:09;;;;;;;3.97;0.60;;;;;;;10.21;73.28;100554.44;5007692;28;20136;-70
2022/09/16 07:33:39;;;;;;;3.35;0.70;;;;;;;10.31;73.02;100548.25;5006247;28;20057;-70
2022/09/16 07:36:07;;;;;;;13.10;0.98;;;;;;;10.44;72.47;100542.34;5004334;28;20527;-71
2022/09/16 07:38:33;;;;;;;3.15;0.52;;;;;;;10.55;72.19;100554.16;5011913;28;20034;-72
2022/09/16 07:41:06;;;;;;;5.80;0.70;;;;;;;10.62;72.16;100554.78;5009231;28;20116;-71
2022/09/16 07:43:32;;;;;;;2.47;0.50;;;;;;;10.86;71.84;100554.38;5005725;28;20495;-71
2022/09/16 07:45:58;;;;;;;4.63;0.55;;;;;;;11.24;70.89;100548.81;5009800;28;20053;-72
2022/09/16 07:48:25;;;;;;;5.00;1.10;;;;;;;11.65;69.33;100549.78;5005464;28;20030;-71
2022/09/16 07:50:56;;;;;;;2.55;0.75;;;;;;;11.84;68.24;100562.94;4997652;28;20030;-70
2022/09/16 07:53:22;;;;;;;6.85;0.50;;;;;;;11.80;68.24;100572.84;5007885;28;20452;-71
2022/09/16 07:55:47;;;;;;;2.20;0.50;;;;;;;11.84;69.05;100576.66;5008891;28;20061;-70
2022/09/16 07:58:13;;;;;;;4.85;0.95;;;;;;;11.88;69.21;100585.97;5007533;28;20029;-71
2022/09/16 08:00:38;;;;;;;1.40;0.47;;;;;;;11.90;69.37;100572.84;5006506;28;20088;-70
2022/09/16 08:03:04;;;;;;;6.13;1.10;;;;;;;12.07;68.58;100574.53;4953738;28;20528;-69
2022/09/16 08:05:30;;;;;;;5.78;1.10;;;;;;;12.12;68.47;100569.91;5005724;28;20476;-70
2022/09/16 08:07:55;;;;;;;2.17;0.47;;;;;;;12.38;67.83;100581.69;5010010;28;20037;-71
2022/09/16 08:10:21;;;;;;;2.55;0.47;;;;;;;12.59;67.01;100578.94;4987819;28;20062;-70
2022/09/16 08:12:47;;;;;;;1.17;0.32;;;;;;;13.09;67.10;100593.66;4978995;28;20050;-69
2022/09/16 08:15:12;;;;;;;2.58;0.52;;;;;;;13.43;65.96;100579.31;5006910;28;20033;-69
2022/09/16 08:17:38;;;;;;;3.45;0.50;;;;;;;13.78;64.80;100587.63;4997164;28;20038;-69
2022/09/16 08:20:05;;;;;;;2.30;0.40;;;;;;;13.99;64.19;100582.84;4972107;28;20349;-69
2022/09/16 08:22:31;;;;;;;1.08;0.30;;;;;;;14.18;63.12;100584.91;4989263;28;20037;-71
2022/09/16 08:24:56;;;;;;;6.55;0.50;;;;;;;14.34;63.02;100594.69;4989084;28;20140;-70
2022/09/16 08:27:22;;;;;;;3.70;0.35;;;;;;;14.60;62.15;100597.22;5007779;28;20068;-70
2022/09/16 08:29:47;;;;;;;3.85;0.90;;;;;;;14.76;61.75;100596.03;5008432;28;20045;-71
2022/09/16 08:32:13;;;;;;;4.05;1.02;;;;;;;14.91;60.47;100597.78;5006059;28;20034;-70
2022/09/16 08:34:39;;;;;;;6.47;0.98;;;;;;;14.96;59.92;100610.69;5005054;28;20045;-71
2022/09/16 08:37:05;;;;;;;1.35;0.65;;;;;;;14.94;58.98;100601.91;5004892;28;20491;-70
2022/09/16 08:39:31;;;;;;;6.07;0.93;;;;;;;15.16;59.81;100621.47;5009162;28;20029;-71
2022/09/16 08:42:35;;;;;;;3.08;0.60;;;;;;;15.50;58.94;100620.53;5001975;28;20029;-70
2022/09/16 08:45:08;;;;;;;1.50;0.70;;;;;;;15.69;57.89;100623.31;4948147;28;20199;-70
2022/09/16 08:48:38;;;;;;;1.30;0.50;;;;;;;15.91;57.54;100623.91;4960995;28;20484;-71
2022/09/16 08:51:08;;;;;;;0.82;0.35;;;;;;;16.10;57.35;100626.69;4898070;29;20060;-70
2022/09/16 08:53:56;;;;;;;1.02;0.32;;;;;;;16.43;56.39;100627.56;5011560;28;20041;-70
2022/09/16 08:56:26;;;;;;;2.25;0.60;;;;;;;16.84;56.30;100618.56;4975071;28;20042;-70
2022/09/16 08:58:55;;;;;;;2.83;0.70;;;;;;;17.26;55.09;100630.53;5004204;28;20105;-71
2022/09/16 09:01:33;;;;;;;3.78;0.60;;;;;;;17.60;52.69;100623.78;5005644;28;20026;-69
2022/09/16 09:03:58;;;;;;;2.58;0.43;;;;;;;18.02;51.50;100629.28;5003415;28;20037;-71
2022/09/16 09:06:30;;;;;;;3.88;0.80;;;;;;;18.58;49.93;100632.66;4996105;28;20041;-70
2022/09/16 09:09:23;;;;;;;1.23;0.50;;;;;;;19.40;48.50;100637.19;5005204;28;20030;-69
2022/09/16 09:12:01;;;;;;;1.25;0.40;;;;;;;20.18;46.17;100634.63;5006203;28;20030;-70
2022/09/16 09:14:42;;;;;;;2.45;0.50;;;;;;;20.97;43.88;100648.44;5007766;28;20087;-73
2022/09/16 09:17:38;;;;;;;3.25;0.60;;;;;;;21.71;42.45;100638.03;5014801;28;20033;-71
2022/09/16 09:20:34;;;;;;;1.83;0.45;;;;;;;22.52;39.63;100637.13;4998168;28;20033;-72
2022/09/16 09:23:31;;;;;;;3.08;0.50;;;;;;;22.90;37.87;100641.66;5007650;28;20018;-71
2022/09/16 09:26:03;;;;;;;11.00;0.95;;;;;;;23.43;36.74;100641.88;5024391;28;20046;-71
2022/09/16 09:28:51;;;;;;;0.60;0.40;;;;;;;23.91;36.08;100645.03;5024494;28;20084;-72
2022/09/16 09:31:41;;;;;;;2.05;0.50;;;;;;;25.18;35.74;100647.41;5003165;28;20023;-71
2022/09/16 09:34:30;;;;;;;1.33;0.50;;;;;;;26.12;32.86;100653.28;5006966;28;20030;-72
2022/09/16 09:37:28;;;;;;;2.05;0.40;;;;;;;26.74;31.33;100652.59;5002924;28;20050;-71
2022/09/16 09:40:14;;;;;;;1.45;0.50;;;;;;;27.33;30.87;100658.88;5009152;28;20036;-70
2022/09/16 09:43:08;;;;;;;2.50;0.57;;;;;;;28.26;29.59;100653.88;5013688;28;20021;-72
2022/09/16 09:45:40;;;;;;;0.90;0.30;;;;;;;29.42;28.25;100651.16;5012513;28;20561;-71
2022/09/16 09:48:23;;;;;;;1.70;0.45;;;;;;;30.77;27.25;100661.97;5006768;28;20207;-70
2022/09/16 09:50:51;;;;;;;1.52;0.50;;;;;;;31.55;25.72;100651.97;4989084;28;20046;-70
2022/09/16 09:53:27;;;;;;;1.55;0.40;;;;;;;30.31;27.46;100660.56;4992060;28;20837;-69
2022/09/16 09:56:14;;;;;;;1.20;0.50;;;;;;;27.99;28.56;100659.56;5002599;28;20034;-71
2022/09/16 09:58:52;;;;;;;1.13;0.60;;;;;;;26.15;31.39;100663.75;5010127;28;20033;-73
2022/09/16 10:01:18;;;;;;;1.88;0.47;;;;;;;25.53;31.81;100655.91;5014795;28;20117;-74
2022/09/16 10:03:44;;;;;;;1.10;0.40;;;;;;;24.55;33.25;100655.28;5007197;28;20424;-71
2022/09/16 10:06:11;;;;;;;1.35;0.40;;;;;;;24.87;33.61;100657.41;5009523;28;20089;-73
2022/09/16 10:08:48;;;;;;;3.33;0.60;;;;;;;29.43;28.54;100652.75;5008721;28;20367;-73
2022/09/16 10:11:19;;;;;;;1.83;0.50;;;;;;;33.10;23.43;100665.56;5013840;28;20096;-72
2022/09/16 10:13:50;;;;;;;2.58;0.40;;;;;;;32.96;22.09;100666.47;5012258;28;20022;-72
2022/09/16 10:16:21;;;;;;;2.00;0.82;;;;;;;30.76;24.48;100652.69;5008674;28;20100;-73
2022/09/16 10:19:35;;;;;;;1.15;0.40;;;;;;;30.03;25.53;100669.69;5011010;28;20468;-70
2022/09/16 10:22:09;;;;;;;3.27;0.33;;;;;;;27.39;26.93;100665.00;5003365;28;20032;-71
2022/09/16 10:24:37;;;;;;;1.38;0.30;;;;;;;25.07;30.43;100647.13;5009431;28;20268;-70
2022/09/16 10:27:27;;;;;;;1.30;0.22;;;;;;;24.59;32.40;100652.66;5008843;28;20018;-72
2022/09/16 10:30:22;;;;;;;1.33;0.50;;;;;;;28.91;27.72;100657.47;4984577;28;20034;-71
2022/09/16 10:32:57;;;;;;;0.60;0.30;;;;;;;30.72;24.79;100657.50;4997234;28;20044;-71
2022/09/16 10:35:28;;;;;;;1.30;0.38;;;;;;;31.91;22.95;100656.81;5007467;28;20018;-70
2022/09/16 10:37:57;;;;;;;0.70;0.35;;;;;;;32.11;21.99;100660.78;5013804;28;20109;-71
2022/09/16 10:40:24;;;;;;;1.25;0.40;;;;;;;30.37;23.76;100646.88;5006612;28;20025;-71
2022/09/16 10:42:52;;;;;;;1.98;0.43;;;;;;;31.28;23.69;100660.06;5007269;28;20477;-73
2022/09/16 10:45:43;;;;;;;8.63;0.40;;;;;;;35.17;19.80;100668.56;5006632;28;20033;-71
2022/09/16 10:48:13;;;;;;;1.98;0.38;;;;;;;35.98;19.11;100667.59;5008239;28;20053;-73
2022/09/16 10:50:38;;;;;;;3.13;0.30;;;;;;;37.98;16.66;100665.41;5004886;28;20077;-71
2022/09/16 10:53:21;;;;;;;0.30;0.10;;;;;;;38.98;16.18;100668.59;4974966;28;20022;-70
2022/09/16 10:55:56;;;;;;;3.15;0.40;;;;;;;38.68;14.87;100660.13;5009680;28;20033;-71
2022/09/16 10:58:22;;;;;;;1.55;0.50;;;;;;;39.37;14.85;100672.22;5010651;28;20116;-71
2022/09/16 11:01:09;;;;;;;3.72;0.30;;;;;;;37.24;15.90;100666.91;5014445;28;20026;-71
2022/09/16 11:03:51;;;;;;;1.17;0.30;;;;;;;39.03;15.67;100657.38;5006347;28;20084;-69
2022/09/16 11:06:30;;;;;;;1.42;0.40;;;;;;;41.62;14.02;100663.22;5005283;28;20022;-71
2022/09/16 11:09:27;;;;;;;0.55;0.28;;;;;;;41.92;13.61;100660.72;5009641;28;20437;-71
2022/09/16 11:12:37;;;;;;;0.38;0.25;;;;;;;37.00;16.24;100657.72;5004161;28;20065;-71
2022/09/16 11:15:08;;;;;;;0.55;0.30;;;;;;;33.56;18.91;100650.25;5001508;28;20053;-71
2022/09/16 11:17:36;;;;;;;0.47;0.20;;;;;;;37.19;16.99;100658.88;5010291;28;20097;-72
2022/09/16 11:20:23;;;;;;;2.58;0.30;;;;;;;38.68;14.20;100657.25;5008786;28;20030;-74
2022/09/16 11:23:36;;;;;;;2.88;0.30;;;;;;;34.83;16.36;100666.66;4991211;28;20053;-74
2022/09/16 11:26:14;;;;;;;1.58;0.50;;;;;;;30.66;19.86;100659.09;4998392;28;20065;-74
2022/09/16 11:29:08;;;;;;;1.10;0.40;;;;;;;27.86;23.40;100652.50;5003091;28;20065;-72
2022/09/16 11:31:39;;;;;;;;;;;;;;;32.03;21.44;100653.53;4995912;28;20368;-71
2022/09/16 11:34:15;;;;;;;1.73;0.30;;;;;;;36.35;16.64;100647.78;5002405;28;19910;-69
2022/09/16 11:36:49;;;;;;;1.13;0.40;;;;;;;33.42;16.81;100656.03;5004410;28;20026;-70
2022/09/16 11:39:33;;;;;;;2.22;0.50;;;;;;;29.77;20.70;100649.78;5013132;28;20026;-70
2022/09/16 11:42:07;;;;;;;0.70;0.20;;;;;;;28.66;22.58;100655.19;5006610;28;20046;-69
2022/09/16 11:44:51;;;;;;;0.88;0.30;;;;;;;33.31;18.29;100652.47;5006798;28;20041;-70
2022/09/16 11:47:27;;;;;;;0.57;0.20;;;;;;;32.19;18.81;100662.38;5005744;28;20428;-70
2022/09/16 11:50:16;;;;;;;1.90;0.20;;;;;;;31.98;19.87;100656.75;5005330;28;20502;-69
2022/09/16 11:53:19;;;;;;;0.43;0.17;;;;;;;37.65;15.32;100668.31;5013075;28;20051;-69
2022/09/16 11:55:57;;;;;;;1.20;0.30;;;;;;;34.73;16.51;100659.84;5007450;28;20026;-70
2022/09/16 11:58:45;;;;;;;0.98;0.38;;;;;;;31.53;18.92;100665.72;5016091;28;20025;-71
2022/09/16 12:01:40;;;;;;;0.70;0.20;;;;;;;28.87;21.09;100653.84;5005680;28;20026;-70